LEZLLEVC

Guest
Details From LEZL - Sevilla
To LEVC - Valencia
Flight Number -
Tags Generated
Created
Modified
Stats Distance 284 nm / 525 km
Max Altitude 0 ft / 0 m
Waypoints 3
Social Downloads 1
Likes 0
Share VATSIM

Download

Looking for another format? Having issues loading an existing format? Contact us
Advertisement - Login to hide

Notes

Generated

Route

LEZL SOBRO LEVC

ID Type Via Altitude Latitude Longitude Leg Dist Tot Dist Heading (true) Name
O LEZL APT - 0 ft / 0 m 37.41788˚ -5.91208˚ - 0 nm - -
SOBRO FIX - 0 ft / 0 m 39.40028˚ -0.89611˚ 264 nm 264 nm 62° / 65° -
O LEVC APT - 0 ft / 0 m 39.49655˚ -0.50070˚ 19 nm 283 nm 72° / 73° -

Altitude Profile

Advertisement - Login to hide

Weather


0- 5 10 15 20 25 30 35+ Temperature / ° C

Clouds and Precipitation
Forecast for 2017-12-18 00:00 UTC. Updated 2 hours ago

Ground ~20,000 ft ~40,000 ft Winds

LEZL

Details ICAO LEZL (SVQ)
Name Sevilla
Region Spain
Timezone Europe/Madrid (UTC+1.0)
Stats Elevation 111 ft / 34 m (AMSL)
Location 37.417939° -5.893093°
Runways 1
Magnetic Variation 1.295° W

METAR

LEZL 180100Z AUTO 04005KT 9999 NCD 06/02 Q1031

Decode

TAF

TAF LEZL 172000Z 1721/1821 05008KT CAVOK TX15/1815Z TN04/1807Z

Decode

Departure Runways

ID Width Length Bearing (true) Bearing (mag) Surface Threshold Offset Overrun Length
09 148 ft / 45 m 11,008 ft / 3,355 m 89.75° 91.05° Asphalt 0 ft / 0 m 0 ft / 0 m
27 148 ft / 45 m 11,008 ft / 3,355 m 269.77° 271.07° Asphalt 0 ft / 0 m 0 ft / 0 m

LEVC

Details ICAO LEVC (VLC)
Name Valencia
Region Spain
Timezone Europe/Madrid (UTC+1.0)
Stats Elevation 225 ft / 69 m (AMSL)
Location 39.488236° -0.483892°
Runways 2
Magnetic Variation 0.193° E

METAR

LEVC 180100Z VRB02KT CAVOK 03/M02 Q1031 NOSIG

Decode

TAF

TAF LEVC 172300Z 1800/1824 27005KT 9999 FEW030 TX16/1813Z TN01/1806Z TEMPO 1812/1816 22006KT

Decode

Destination Runways

ID Width Length Bearing (true) Bearing (mag) Surface Threshold Offset Overrun Length
12 148 ft / 45 m 10,555 ft / 3,217 m 116.25° 116.06° Asphalt 0 ft / 0 m 646 ft / 197 m
22 154 ft / 47 m 3,828 ft / 1,167 m 217.99° 217.80° Asphalt 0 ft / 0 m 0 ft / 0 m
30 148 ft / 45 m 10,555 ft / 3,217 m 296.27° 296.08° Asphalt 1,001 ft / 305 m 932 ft / 284 m
4 154 ft / 47 m 3,828 ft / 1,167 m 37.98° 37.79° Asphalt 0 ft / 0 m 0 ft / 0 m

Approach Navaids

Runway Type Ident Frequency Range Bearing (true) Bearing (mag) Slope Elevation
12 Localiser VLN 111.50 MHz 25 nm / 46 km 116.20° 116.01° - 256 ft / 78 m (AMSL)
12 Glidescope VLN 111.50 MHz 10 nm / 19 km 116.20° 116.01° 3.00° 256 ft / 78 m (AMSL)
12 DME VLN 111.50 MHz 25 nm / 46 km - - - 256 ft / 78 m (AMSL)
30 Localiser IVC 110.10 MHz 18 nm / 33 km 296.19° 296.00° - 225 ft / 69 m (AMSL)
30 Glidescope IVC 110.10 MHz 10 nm / 19 km 296.26° 296.07° 3.00° 225 ft / 69 m (AMSL)
30 DME IVC 110.10 MHz 18 nm / 33 km - - - 203 ft / 62 m (AMSL)

Popular Alternatives